Time;durP1;ratioP1;P1;durP2;ratioP2;P2;SDS_P1;SDS_P2;PMS_P1;PMS_P2;Temp;Humidity;BMP_temperature;BMP_pressure;BME280_temperature;BME280_humidity;BME280_pressure;Samples;Min_cycle;Max_cycle;Signal;HPM_P1;HPM_P2
2022/11/17 07:12:40;;;;;;;10.90;3.42;;;;;;;-144.40;100.00;60209.53;4865353;29;20416;-96
2022/11/17 07:15:06;;;;;;;8.20;3.75;;;;;;;-144.40;100.00;60209.53;4867382;29;20037;-96
2022/11/17 07:17:31;;;;;;;10.85;3.67;;;;;;;-144.40;100.00;60209.53;4867954;29;20125;-96
2022/11/17 07:19:57;;;;;;;13.05;3.97;;;;;;;-144.40;100.00;60209.53;4865588;29;20492;-96
2022/11/17 07:22:23;;;;;;;10.57;3.42;;;;;;;-144.40;100.00;60209.53;4879352;29;20033;-96
2022/11/17 07:24:49;;;;;;;6.78;3.42;;;;;;;-144.40;100.00;60209.53;4883960;29;20037;-95
2022/11/17 07:27:14;;;;;;;9.13;3.70;;;;;;;-144.40;100.00;60209.53;4870654;29;20062;-96
2022/11/17 07:29:40;;;;;;;8.15;3.40;;;;;;;-144.40;100.00;60209.53;4868437;29;20029;-96
2022/11/17 07:32:06;;;;;;;7.50;3.13;;;;;;;-144.40;100.00;60209.53;4869133;29;20424;-94
2022/11/17 07:34:32;;;;;;;10.07;3.47;;;;;;;-144.40;100.00;60209.53;4852364;29;20034;-96
2022/11/17 07:36:58;;;;;;;8.57;3.53;;;;;;;-144.40;100.00;60209.53;4881837;29;20374;-96
2022/11/17 07:39:23;;;;;;;8.90;3.20;;;;;;;-144.40;100.00;60209.53;4866800;29;20425;-94
2022/11/17 07:41:48;;;;;;;8.25;3.00;;;;;;;-144.40;100.00;60209.53;4882304;29;20037;-95
2022/11/17 07:44:14;;;;;;;6.70;2.90;;;;;;;-144.40;100.00;60209.53;4866874;29;20033;-95
2022/11/17 07:46:39;;;;;;;15.63;3.10;;;;;;;-144.40;100.00;60209.53;4866082;29;20033;-95
2022/11/17 07:49:05;;;;;;;6.80;3.70;;;;;;;-144.40;100.00;60209.53;4866415;29;20025;-96
2022/11/17 07:51:30;;;;;;;11.15;3.20;;;;;;;-144.40;100.00;60209.53;4866812;29;20037;-95
2022/11/17 07:53:56;;;;;;;7.75;3.33;;;;;;;-144.40;100.00;60209.53;4865400;29;20044;-95
2022/11/17 07:56:21;;;;;;;8.85;2.65;;;;;;;-144.40;100.00;60209.53;4866043;29;20045;-94
2022/11/17 07:58:47;;;;;;;7.68;2.83;;;;;;;-144.40;100.00;60209.53;4866778;29;20026;-95
2022/11/17 08:01:14;;;;;;;11.10;3.25;;;;;;;-144.40;100.00;60209.53;4864770;29;20621;-96
2022/11/17 08:03:40;;;;;;;9.57;2.92;;;;;;;-144.40;100.00;60209.53;4866144;29;20033;-95
2022/11/17 08:06:06;;;;;;;9.10;3.58;;;;;;;-144.40;100.00;60209.53;4866209;29;20026;-96
2022/11/17 08:08:33;;;;;;;11.23;3.20;;;;;;;-144.40;100.00;60209.53;4865584;29;20528;-95
2022/11/17 08:11:08;;;;;;;11.95;3.13;;;;;;;-144.40;100.00;60209.53;4866862;29;20549;-95
2022/11/17 08:13:35;;;;;;;8.32;3.08;;;;;;;-144.40;100.00;60209.53;4866979;29;20029;-95
2022/11/17 08:16:01;;;;;;;7.85;3.08;;;;;;;-144.40;100.00;60209.53;4866235;29;20493;-95
2022/11/17 08:18:27;;;;;;;12.55;3.53;;;;;;;-144.40;100.00;60209.53;4863391;29;20044;-94
2022/11/17 08:21:01;;;;;;;7.30;2.60;;;;;;;-144.40;100.00;60209.53;4864373;29;20520;-95
2022/11/17 08:23:26;;;;;;;9.55;3.47;;;;;;;-144.40;100.00;60209.53;4964561;23;20531;-95
2022/11/17 08:25:52;;;;;;;11.38;4.30;;;;;;;-144.40;100.00;60209.53;4861134;29;20090;-94
2022/11/17 08:51:34;;;;;;;14.82;3.75;;;;;;;-144.40;100.00;60209.53;5380846;23;20538;-96
2022/11/17 08:53:59;;;;;;;14.43;5.13;;;;;;;-144.40;100.00;60209.53;4868508;29;20029;-94
2022/11/17 08:56:25;;;;;;;8.55;3.97;;;;;;;-144.40;100.00;60209.53;4869419;29;20029;-96
2022/11/17 08:58:51;;;;;;;9.70;3.63;;;;;;;-144.40;100.00;60209.53;4885222;29;20052;-94
2022/11/17 09:01:16;;;;;;;8.75;4.57;;;;;;;-144.40;100.00;60209.53;4883468;29;20068;-93
2022/11/17 09:03:43;;;;;;;9.13;4.20;;;;;;;-144.40;100.00;60209.53;4882777;29;20089;-95
2022/11/17 09:06:11;;;;;;;12.55;4.15;;;;;;;-144.40;100.00;60209.53;4883267;29;20076;-96
2022/11/17 09:08:37;;;;;;;4.13;3.30;;;;;;;-144.40;100.00;60209.53;4883333;29;20507;-95
2022/11/17 09:11:05;;;;;;;7.78;3.40;;;;;;;-144.40;100.00;60209.53;4882023;29;20037;-94
2022/11/17 09:13:30;;;;;;;8.05;3.85;;;;;;;-144.40;100.00;60209.53;4879669;29;20105;-95
2022/11/17 09:16:07;;;;;;;12.02;4.00;;;;;;;-144.40;100.00;60209.53;4880257;29;20492;-94
2022/11/17 09:18:35;;;;;;;9.18;3.25;;;;;;;-144.40;100.00;60209.53;4880935;29;20088;-93
2022/11/17 09:21:03;;;;;;;11.63;3.00;;;;;;;-144.40;100.00;60209.53;4881608;29;20033;-94
2022/11/17 09:23:30;;;;;;;9.18;3.08;;;;;;;-144.40;100.00;60209.53;4874106;29;20029;-94
2022/11/17 09:25:56;;;;;;;11.70;3.90;;;;;;;-144.40;100.00;60209.53;4882167;29;20025;-95
2022/11/17 09:28:25;;;;;;;7.18;3.15;;;;;;;-144.40;100.00;60209.53;4880309;29;20081;-95
2022/11/17 09:30:52;;;;;;;7.57;3.22;;;;;;;-144.40;100.00;60209.53;4881873;29;20092;-94
2022/11/17 09:33:18;;;;;;;7.43;2.83;;;;;;;-144.40;100.00;60209.53;4887897;29;20108;-94
2022/11/17 09:35:44;;;;;;;9.77;3.20;;;;;;;-144.40;100.00;60209.53;4881934;29;20025;-95
2022/11/17 09:38:10;;;;;;;9.98;2.40;;;;;;;-144.40;100.00;60209.53;4870955;29;20484;-96
2022/11/17 09:40:39;;;;;;;6.20;2.75;;;;;;;-144.40;100.00;60209.53;4865612;29;20145;-96
2022/11/17 09:43:17;;;;;;;6.25;2.72;;;;;;;-144.40;100.00;60209.53;4864939;29;20426;-95
2022/11/17 09:45:45;;;;;;;9.80;3.42;;;;;;;-144.40;100.00;60209.53;4863407;29;20132;-95
2022/11/17 09:48:25;;;;;;;6.50;3.42;;;;;;;-144.40;100.00;60209.53;4871649;29;20037;-95
2022/11/17 09:50:56;;;;;;;9.75;2.33;;;;;;;-144.40;100.00;60209.53;4876909;29;20028;-96
2022/11/17 09:53:32;;;;;;;4.15;1.92;;;;;;;-144.40;100.00;60209.53;4883137;29;20084;-95
2022/11/17 09:56:02;;;;;;;9.30;2.13;;;;;;;-144.40;100.00;60209.53;4881760;29;20033;-96
2022/11/17 09:58:52;;;;;;;6.13;1.58;;;;;;;-144.40;100.00;60209.53;4883434;29;20036;-95
2022/11/17 10:01:20;;;;;;;5.38;1.30;;;;;;;-144.40;100.00;60209.53;4882785;29;20041;-96
2022/11/17 10:03:48;;;;;;;7.30;1.33;;;;;;;-144.40;100.00;60209.53;4883075;29;20033;-95
2022/11/17 10:06:20;;;;;;;2.88;0.80;;;;;;;-144.40;100.00;60209.53;4883724;29;20169;-96
2022/11/17 10:09:01;;;;;;;4.20;1.13;;;;;;;-144.40;100.00;60209.53;4883135;29;20035;-95
2022/11/17 10:11:33;;;;;;;4.80;1.17;;;;;;;-144.40;100.00;60209.53;4874563;29;20040;-96
2022/11/17 10:14:14;;;;;;;8.50;2.47;;;;;;;-144.40;100.00;60209.53;4867833;29;20150;-95
2022/11/17 10:16:59;;;;;;;5.43;1.33;;;;;;;-144.40;100.00;60209.53;4881325;29;20029;-94
2022/11/17 10:19:35;;;;;;;3.65;1.05;;;;;;;-144.40;100.00;60209.53;4880394;29;20029;-95
2022/11/17 10:22:00;;;;;;;3.53;1.00;;;;;;;-144.40;100.00;60209.53;4882682;29;20025;-95
2022/11/17 10:24:40;;;;;;;2.78;0.82;;;;;;;-144.40;100.00;60209.53;4876857;29;20080;-95
2022/11/17 10:27:30;;;;;;;6.32;0.90;;;;;;;-144.40;100.00;60209.53;4878850;29;20041;-96
2022/11/17 10:30:06;;;;;;;6.13;1.08;;;;;;;-144.40;100.00;60209.53;4881030;29;20120;-95
2022/11/17 10:32:36;;;;;;;3.03;0.73;;;;;;;-144.40;100.00;60209.53;4869214;29;20029;-95
2022/11/17 10:35:52;;;;;;;4.85;1.00;;;;;;;-144.40;100.00;60209.53;4876479;29;20026;-95
2022/11/17 10:38:22;;;;;;;6.57;1.08;;;;;;;-144.40;100.00;60209.53;4831134;29;20040;-95
2022/11/17 10:40:52;;;;;;;2.38;0.60;;;;;;;-144.40;100.00;60209.53;4822326;29;20026;-95
2022/11/17 10:43:34;;;;;;;1.88;1.00;;;;;;;-144.40;100.00;60209.53;4866379;29;20125;-95
2022/11/17 10:46:21;;;;;;;7.55;1.27;;;;;;;-144.40;100.00;60209.53;4871122;29;20037;-94
2022/11/17 10:48:54;;;;;;;6.15;1.27;;;;;;;-144.40;100.00;60209.53;4895496;29;20033;-92
2022/11/17 10:51:21;;;;;;;7.03;1.75;;;;;;;-144.40;100.00;60209.53;4886963;29;20029;-96
2022/11/17 10:54:15;;;;;;;6.40;1.17;;;;;;;-144.40;100.00;60209.53;4885740;29;20084;-95
2022/11/17 10:56:45;;;;;;;5.18;1.52;;;;;;;-144.40;100.00;60209.53;4879526;29;20124;-96
2022/11/17 10:59:22;;;;;;;4.68;1.50;;;;;;;-144.40;100.00;60209.53;4875418;29;20029;-96
2022/11/17 11:01:51;;;;;;;3.95;1.35;;;;;;;-144.40;100.00;60209.53;4862281;29;20029;-96
2022/11/17 11:04:32;;;;;;;5.60;2.28;;;;;;;-144.40;100.00;60209.53;4877666;29;20116;-96
2022/11/17 11:07:07;;;;;;;5.18;1.40;;;;;;;-144.40;100.00;60209.53;4877449;29;20074;-96
2022/11/17 11:10:19;;;;;;;3.17;1.35;;;;;;;-144.40;100.00;60209.53;4882639;29;20084;-96
2022/11/17 11:12:58;;;;;;;6.65;1.27;;;;;;;-144.40;100.00;60209.53;4872054;29;20081;-96
2022/11/17 11:15:33;;;;;;;5.00;1.30;;;;;;;-144.40;100.00;60209.53;4880676;29;20483;-96
2022/11/17 11:17:59;;;;;;;4.65;0.93;;;;;;;-144.40;100.00;60209.53;4880587;29;20608;-95
2022/11/17 11:20:58;;;;;;;7.75;1.30;;;;;;;-144.40;100.00;60209.53;4881134;29;20201;-96
2022/11/17 11:23:26;;;;;;;6.78;1.25;;;;;;;-144.40;100.00;60209.53;4879757;29;20029;-96
2022/11/17 11:26:29;;;;;;;10.15;1.05;;;;;;;-144.40;100.00;60209.53;4878286;29;20025;-96
2022/11/17 11:29:19;;;;;;;4.63;1.65;;;;;;;-144.40;100.00;60209.53;4878578;29;20033;-94
2022/11/17 11:32:03;;;;;;;9.23;1.60;;;;;;;-144.40;100.00;60209.53;4865446;29;20052;-94
2022/11/17 11:34:28;;;;;;;3.75;0.85;;;;;;;-144.40;100.00;60209.53;4875045;29;20109;-95
2022/11/17 11:37:14;;;;;;;4.00;1.05;;;;;;;-144.40;100.00;60209.53;4877401;29;20076;-96
2022/11/17 11:39:42;;;;;;;7.72;1.27;;;;;;;-144.40;100.00;60209.53;4877354;29;20041;-95
2022/11/17 11:42:20;;;;;;;4.47;1.00;;;;;;;-144.40;100.00;60209.53;4880092;29;20021;-95
2022/11/17 11:45:19;;;;;;;3.53;1.17;;;;;;;-144.40;100.00;60209.53;4869135;29;20037;-95
2022/11/17 11:48:19;;;;;;;3.38;1.00;;;;;;;-144.40;100.00;60209.53;4879593;29;20091;-94
2022/11/17 11:50:50;;;;;;;18.92;1.58;;;;;;;-144.40;100.00;60209.53;4869118;29;20036;-94
2022/11/17 11:53:27;;;;;;;7.20;1.73;;;;;;;-144.40;100.00;60209.53;4882498;29;20153;-94
2022/11/17 11:56:44;;;;;;;5.80;1.67;;;;;;;-144.40;100.00;60209.53;4892612;29;20057;-96
2022/11/17 11:59:19;;;;;;;3.67;1.10;;;;;;;-144.40;100.00;60209.53;4899620;29;20053;-96
2022/11/17 12:02:05;;;;;;;4.35;1.50;;;;;;;-144.40;100.00;60209.53;4890600;29;20033;-96
2022/11/17 12:04:59;;;;;;;2.72;0.80;;;;;;;-144.40;100.00;60209.53;4894013;29;20033;-96
2022/11/17 12:07:36;;;;;;;7.07;1.13;;;;;;;-144.40;100.00;60209.53;4885233;29;20056;-93
2022/11/17 12:10:12;;;;;;;6.80;0.90;;;;;;;-144.40;100.00;60209.53;4870230;29;20060;-94
2022/11/17 12:12:39;;;;;;;3.75;0.70;;;;;;;-144.40;100.00;60209.53;4863371;29;20030;-93
2022/11/17 12:15:10;;;;;;;2.13;0.70;;;;;;;-144.40;100.00;60209.53;4864211;29;20158;-94
2022/11/17 12:17:36;;;;;;;3.35;0.93;;;;;;;-144.40;100.00;60209.53;4867214;29;20048;-93
2022/11/17 12:20:23;;;;;;;4.55;0.90;;;;;;;-144.40;100.00;60209.53;4884336;29;20036;-95
2022/11/17 12:23:05;;;;;;;2.47;0.90;;;;;;;-144.40;100.00;60209.53;4864795;29;20109;-94
2022/11/17 12:25:34;;;;;;;6.40;1.00;;;;;;;-144.40;100.00;60209.53;4876952;29;20035;-94
2022/11/17 12:28:33;;;;;;;5.78;0.85;;;;;;;-144.40;100.00;60209.53;4880355;29;20041;-93
2022/11/17 12:30:59;;;;;;;3.40;0.90;;;;;;;-144.40;100.00;60209.53;4881745;29;20040;-92
2022/11/17 12:33:53;;;;;;;2.85;0.80;;;;;;;-144.40;100.00;60209.53;4882403;29;20064;-92
2022/11/17 12:36:30;;;;;;;4.50;0.98;;;;;;;-144.40;100.00;60209.53;4884293;29;20112;-92
2022/11/17 12:38:56;;;;;;;2.88;0.80;;;;;;;-144.40;100.00;60209.53;4881820;29;20037;-93
2022/11/17 12:41:47;;;;;;;3.00;0.75;;;;;;;-144.40;100.00;60209.53;4883593;29;20029;-94
2022/11/17 12:44:30;;;;;;;4.72;1.23;;;;;;;-144.40;100.00;60209.53;4882166;29;20029;-93
2022/11/17 12:47:14;;;;;;;6.10;1.00;;;;;;;-144.40;100.00;60209.53;4881623;29;20025;-94
2022/11/17 12:50:01;;;;;;;4.30;0.80;;;;;;;-144.40;100.00;60209.53;4883334;29;20041;-94
2022/11/17 12:52:42;;;;;;;4.45;0.73;;;;;;;-144.40;100.00;60209.53;4875570;29;20037;-93
2022/11/17 12:55:35;;;;;;;5.75;1.13;;;;;;;-144.40;100.00;60209.53;4863705;29;20034;-94
2022/11/17 12:58:27;;;;;;;5.70;0.85;;;;;;;-144.40;100.00;60209.53;4864462;29;20033;-94
2022/11/17 13:01:01;;;;;;;4.28;1.20;;;;;;;-144.40;100.00;60209.53;4864275;29;20430;-93
2022/11/17 13:03:42;;;;;;;1.52;0.77;;;;;;;-144.40;100.00;60209.53;4863002;29;20056;-94
2022/11/17 13:06:10;;;;;;;9.73;2.20;;;;;;;-144.40;100.00;60209.53;4864516;29;20503;-92
2022/11/17 13:08:35;;;;;;;3.88;1.05;;;;;;;-144.40;100.00;60209.53;4882270;29;20513;-93
2022/11/17 13:11:10;;;;;;;2.65;1.02;;;;;;;-144.40;100.00;60209.53;4882440;29;20128;-93
2022/11/17 13:13:36;;;;;;;4.00;1.27;;;;;;;-144.40;100.00;60209.53;4881287;29;20739;-93
2022/11/17 13:16:03;;;;;;;4.70;1.17;;;;;;;-144.40;100.00;60209.53;4881955;29;20025;-93
2022/11/17 13:18:36;;;;;;;2.50;1.00;;;;;;;-144.40;100.00;60209.53;4881551;29;20088;-94
2022/11/17 13:21:03;;;;;;;3.17;0.88;;;;;;;-144.40;100.00;60209.53;4881784;29;20036;-93
2022/11/17 13:23:31;;;;;;;6.05;0.80;;;;;;;-144.40;100.00;60209.53;4864448;29;20033;-93
2022/11/17 13:26:15;;;;;;;1.58;0.65;;;;;;;-144.40;100.00;60209.53;4863253;29;20033;-94
2022/11/17 13:28:42;;;;;;;5.63;0.90;;;;;;;-144.40;100.00;60209.53;4878762;29;20488;-93
2022/11/17 13:31:16;;;;;;;1.90;0.65;;;;;;;-144.40;100.00;60209.53;4881805;29;20034;-93
2022/11/17 13:33:41;;;;;;;3.58;1.10;;;;;;;-144.40;100.00;60209.53;4882477;29;20033;-92
2022/11/17 13:36:19;;;;;;;5.75;0.88;;;;;;;-144.40;100.00;60209.53;4882086;29;20073;-93
2022/11/17 13:38:49;;;;;;;6.45;1.88;;;;;;;-144.40;100.00;60209.53;4881635;29;20040;-93
2022/11/17 13:41:17;;;;;;;6.32;0.88;;;;;;;-144.40;100.00;60209.53;4881660;29;20480;-93
2022/11/17 13:43:47;;;;;;;5.28;0.90;;;;;;;-144.40;100.00;60209.53;4881663;29;20116;-93
2022/11/17 13:46:13;;;;;;;4.55;0.88;;;;;;;-144.40;100.00;60209.53;4882897;29;20025;-94
2022/11/17 13:48:41;;;;;;;4.88;1.60;;;;;;;-144.40;100.00;60209.53;4880473;29;20033;-93
2022/11/17 13:51:19;;;;;;;10.93;1.25;;;;;;;-144.40;100.00;60209.53;4881149;29;20040;-93
2022/11/17 13:53:48;;;;;;;4.63;1.38;;;;;;;-144.40;100.00;60209.53;4864912;29;20045;-93
2022/11/17 13:56:23;;;;;;;2.55;0.93;;;;;;;-144.40;100.00;60209.53;4863101;29;20078;-93
2022/11/17 13:58:49;;;;;;;3.13;1.05;;;;;;;-144.40;100.00;60209.53;4863073;29;20029;-94
2022/11/17 14:01:22;;;;;;;3.70;0.93;;;;;;;-144.40;100.00;60209.53;4863629;29;20453;-93
2022/11/17 14:03:47;;;;;;;6.80;0.93;;;;;;;-144.40;100.00;60209.53;4862916;29;20063;-93
2022/11/17 14:06:13;;;;;;;4.63;0.68;;;;;;;-144.40;100.00;60209.53;4864336;29;20136;-92
2022/11/17 14:08:41;;;;;;;4.20;1.00;;;;;;;-144.40;100.00;60209.53;4879794;29;20061;-94
2022/11/17 14:11:13;;;;;;;1.90;0.70;;;;;;;-144.40;100.00;60209.53;4882832;29;20127;-93
2022/11/17 14:13:52;;;;;;;3.35;0.70;;;;;;;-144.40;100.00;60209.53;4880773;29;20029;-94
2022/11/17 14:16:25;;;;;;;2.70;0.68;;;;;;;-144.40;100.00;60209.53;4881460;29;20033;-93
2022/11/17 14:18:56;;;;;;;4.35;0.60;;;;;;;-144.40;100.00;60209.53;4882400;29;20029;-94
2022/11/17 14:21:22;;;;;;;3.25;0.65;;;;;;;-144.40;100.00;60209.53;4882376;29;20029;-93
2022/11/17 14:23:47;;;;;;;4.20;0.75;;;;;;;-144.40;100.00;60209.53;4881391;29;20036;-94
2022/11/17 14:26:22;;;;;;;3.80;1.10;;;;;;;-144.40;100.00;60209.53;4879611;29;20031;-94
2022/11/17 14:28:49;;;;;;;3.03;0.75;;;;;;;-144.40;100.00;60209.53;4880204;29;20037;-94
2022/11/17 14:31:14;;;;;;;3.60;0.85;;;;;;;-144.40;100.00;60209.53;4882248;29;20037;-93
2022/11/17 14:33:40;;;;;;;4.00;0.73;;;;;;;-144.40;100.00;60209.53;4881828;29;20040;-93
2022/11/17 14:36:12;;;;;;;5.38;0.98;;;;;;;-144.40;100.00;60209.53;4879165;29;20036;-94
2022/11/17 14:38:37;;;;;;;1.73;1.00;;;;;;;-144.40;100.00;60209.53;4878176;29;20485;-93
2022/11/17 14:41:02;;;;;;;1.48;0.50;;;;;;;-144.40;100.00;60209.53;4862828;29;20041;-93
2022/11/17 14:43:28;;;;;;;2.95;0.77;;;;;;;-144.40;100.00;60209.53;4876643;29;20033;-93
2022/11/17 14:45:53;;;;;;;2.78;0.80;;;;;;;-144.40;100.00;60209.53;4882515;29;20104;-93
2022/11/17 14:48:19;;;;;;;4.25;1.10;;;;;;;-144.40;100.00;60209.53;4881163;29;20036;-93
2022/11/17 14:50:45;;;;;;;3.70;1.27;;;;;;;-144.40;100.00;60209.53;4882294;29;20029;-93
2022/11/17 14:53:11;;;;;;;4.55;1.40;;;;;;;-144.40;100.00;60209.53;4883043;29;20044;-93
2022/11/17 14:55:36;;;;;;;8.05;1.63;;;;;;;-144.40;100.00;60209.53;4881013;29;20025;-93
2022/11/17 14:58:02;;;;;;;2.42;0.68;;;;;;;-144.40;100.00;60209.53;4881121;29;20041;-93
2022/11/17 15:00:27;;;;;;;2.63;1.63;;;;;;;-144.40;100.00;60209.53;4879484;29;20036;-93
2022/11/17 15:02:53;;;;;;;1.77;0.93;;;;;;;-144.40;100.00;60209.53;4878045;29;20051;-92
2022/11/17 15:05:19;;;;;;;2.95;0.75;;;;;;;-144.40;100.00;60209.53;4879010;29;20144;-92
2022/11/17 15:07:44;;;;;;;2.17;0.77;;;;;;;-144.40;100.00;60209.53;4878917;29;20068;-92
2022/11/17 15:10:10;;;;;;;1.65;0.50;;;;;;;-144.40;100.00;60209.53;4879973;29;20039;-92
2022/11/17 15:12:36;;;;;;;2.45;0.70;;;;;;;-144.40;100.00;60209.53;4880954;29;20041;-93
2022/11/17 15:15:02;;;;;;;1.60;0.45;;;;;;;-144.40;100.00;60209.53;4881135;29;20449;-93
2022/11/17 15:17:27;;;;;;;3.92;0.50;;;;;;;-144.40;100.00;60209.53;4880420;29;20029;-92
2022/11/17 15:19:53;;;;;;;4.47;0.55;;;;;;;-144.40;100.00;60209.53;4881173;29;20037;-93
2022/11/17 15:22:19;;;;;;;2.58;0.60;;;;;;;-144.40;100.00;60209.53;4880567;29;20063;-93
2022/11/17 15:24:45;;;;;;;10.13;1.17;;;;;;;-144.40;100.00;60209.53;4881326;29;20029;-93
2022/11/17 15:27:11;;;;;;;5.55;0.80;;;;;;;-144.40;100.00;60209.53;4884564;29;20328;-93
2022/11/17 15:29:37;;;;;;;5.15;0.70;;;;;;;-144.40;100.00;60209.53;4886392;29;20170;-93
2022/11/17 15:32:02;;;;;;;1.75;1.02;;;;;;;-144.40;100.00;60209.53;4884647;29;20053;-92
2022/11/17 15:34:28;;;;;;;3.30;0.88;;;;;;;-144.40;100.00;60209.53;4885314;29;20036;-93
2022/11/17 15:36:53;;;;;;;5.32;1.85;;;;;;;-144.40;100.00;60209.53;4885159;29;20061;-93
2022/11/17 15:39:22;;;;;;;2.60;1.08;;;;;;;-144.40;100.00;60209.53;4884980;29;20033;-93
2022/11/17 15:41:49;;;;;;;2.65;1.02;;;;;;;-144.40;100.00;60209.53;4886446;29;20130;-93
2022/11/17 15:44:14;;;;;;;3.17;1.30;;;;;;;-144.40;100.00;60209.53;4886415;29;20107;-94
2022/11/17 15:46:40;;;;;;;5.65;1.35;;;;;;;-144.40;100.00;60209.53;4884017;29;20048;-94
2022/11/17 15:49:05;;;;;;;2.95;1.17;;;;;;;-144.40;100.00;60209.53;4881569;29;20130;-94
2022/11/17 15:51:31;;;;;;;6.57;1.05;;;;;;;-144.40;100.00;60209.53;4868553;29;20030;-94
2022/11/17 15:53:58;;;;;;;2.63;1.20;;;;;;;-144.40;100.00;60209.53;4867195;29;20060;-94
2022/11/17 15:56:29;;;;;;;4.07;1.65;;;;;;;-144.40;100.00;60209.53;4864600;29;20400;-94
2022/11/17 15:59:01;;;;;;;2.20;1.00;;;;;;;-144.40;100.00;60209.53;4868068;29;20131;-94
2022/11/17 16:01:33;;;;;;;3.47;1.33;;;;;;;-144.40;100.00;60209.53;4884497;29;20033;-94
2022/11/17 16:04:00;;;;;;;6.47;0.93;;;;;;;-144.40;100.00;60209.53;4883180;29;20484;-94
2022/11/17 16:06:27;;;;;;;3.28;0.98;;;;;;;-144.40;100.00;60209.53;4883777;29;20069;-94
2022/11/17 16:08:53;;;;;;;4.70;1.00;;;;;;;-144.40;100.00;60209.53;4884218;29;20072;-92
2022/11/17 16:11:18;;;;;;;7.13;1.40;;;;;;;-144.40;100.00;60209.53;4879786;29;20030;-94
2022/11/17 16:13:44;;;;;;;7.25;1.17;;;;;;;-144.40;100.00;60209.53;4865423;29;20029;-92
2022/11/17 16:16:14;;;;;;;7.47;2.10;;;;;;;-144.40;100.00;60209.53;4877285;29;20055;-94
2022/11/17 16:18:40;;;;;;;4.53;1.25;;;;;;;-144.40;100.00;60209.53;4883317;29;20029;-93
2022/11/17 16:21:09;;;;;;;3.55;1.20;;;;;;;-144.40;100.00;60209.53;4882428;29;20043;-94
2022/11/17 16:23:45;;;;;;;3.00;1.10;;;;;;;-144.40;100.00;60209.53;4884385;29;20116;-94
2022/11/17 16:26:12;;;;;;;1.95;0.73;;;;;;;-144.40;100.00;60209.53;4883541;29;20037;-93
2022/11/17 16:28:38;;;;;;;5.53;0.93;;;;;;;-144.40;100.00;60209.53;4882139;29;20029;-94
2022/11/17 16:31:18;;;;;;;4.90;1.10;;;;;;;-144.40;100.00;60209.53;4882552;29;20128;-93
2022/11/17 16:33:52;;;;;;;5.97;1.15;;;;;;;-144.40;100.00;60209.53;4883984;29;20481;-93
2022/11/17 16:36:20;;;;;;;3.20;1.67;;;;;;;-144.40;100.00;60209.53;4882124;29;20396;-93
2022/11/17 16:38:51;;;;;;;4.80;1.35;;;;;;;-144.40;100.00;60209.53;4882879;29;20025;-93
2022/11/17 16:41:16;;;;;;;3.65;1.20;;;;;;;-144.40;100.00;60209.53;4883550;29;20059;-93
2022/11/17 16:43:42;;;;;;;8.07;2.72;;;;;;;-144.40;100.00;60209.53;4883004;29;20492;-94
2022/11/17 16:46:20;;;;;;;10.90;1.50;;;;;;;-144.40;100.00;60209.53;4884185;29;20065;-92
2022/11/17 16:48:46;;;;;;;3.85;1.27;;;;;;;-144.40;100.00;60209.53;4880617;29;20041;-92
2022/11/17 16:51:12;;;;;;;3.85;1.48;;;;;;;-144.40;100.00;60209.53;4880923;29;20029;-93
2022/11/17 16:53:38;;;;;;;4.60;1.50;;;;;;;-144.40;100.00;60209.53;4883342;29;20028;-93
2022/11/17 16:56:05;;;;;;;4.72;1.40;;;;;;;-144.40;100.00;60209.53;4881022;29;20471;-93
2022/11/17 16:58:31;;;;;;;4.22;1.35;;;;;;;-144.40;100.00;60209.53;4881640;29;20029;-93
2022/11/17 17:00:56;;;;;;;7.47;1.35;;;;;;;-144.40;100.00;60209.53;4882877;29;20531;-95
2022/11/17 17:03:22;;;;;;;7.57;1.90;;;;;;;-144.40;100.00;60209.53;4884524;29;20025;-96
2022/11/17 17:05:48;;;;;;;7.63;1.70;;;;;;;-144.40;100.00;60209.53;4889280;29;20392;-93
2022/11/17 17:08:13;;;;;;;7.47;1.80;;;;;;;-144.40;100.00;60209.53;4881388;29;20041;-95
2022/11/17 17:10:39;;;;;;;4.40;2.03;;;;;;;-144.40;100.00;60209.53;4885038;29;20400;-92
2022/11/17 17:13:04;;;;;;;7.43;2.38;;;;;;;-144.40;100.00;60209.53;4885722;29;20029;-93
2022/11/17 17:15:31;;;;;;;7.50;1.92;;;;;;;-144.40;100.00;60209.53;4880305;29;20040;-93
2022/11/17 17:20:50;;;;;;;7.18;2.03;;;;;;;-144.40;100.00;60209.53;5223397;23;20060;-95
2022/11/17 17:23:24;;;;;;;5.45;1.50;;;;;;;-144.40;100.00;60209.53;4985158;23;20041;-96
2022/11/17 17:31:25;;;;;;;7.85;1.77;;;;;;;-144.40;100.00;60209.53;5566431;23;20064;-96
2022/11/17 17:33:53;;;;;;;4.15;1.55;;;;;;;-144.40;100.00;60209.53;4890061;29;20061;-95
2022/11/17 17:36:26;;;;;;;6.60;1.80;;;;;;;-144.40;100.00;60209.53;4891348;29;20036;-95
2022/11/17 17:39:05;;;;;;;;;;;;;;;;;;;;;
2022/11/17 17:41:36;;;;;;;8.40;1.98;;;;;;;-144.40;100.00;60209.53;4879334;29;20111;-95
2022/11/17 17:44:06;;;;;;;6.27;1.67;;;;;;;-144.40;100.00;60209.53;4882483;29;20080;-96
2022/11/17 17:46:37;;;;;;;6.32;2.20;;;;;;;-144.40;100.00;60209.53;4957491;23;20044;-94
2022/11/17 17:49:28;;;;;;;10.25;2.40;;;;;;;-144.40;100.00;60209.53;4888446;29;20044;-96
2022/11/17 17:52:36;;;;;;;;;;;;;;;;;;;;;
2022/11/17 17:55:07;;;;;;;5.15;1.77;;;;;;;-144.40;100.00;60209.53;4896817;29;20071;-96
2022/11/17 17:57:33;;;;;;;4.07;1.23;;;;;;;-144.40;100.00;60209.53;4872294;29;20064;-95
2022/11/17 17:59:58;;;;;;;13.98;2.35;;;;;;;-144.40;100.00;60209.53;4863249;29;20041;-94
2022/11/17 18:02:24;;;;;;;9.20;3.28;;;;;;;-144.40;100.00;60209.53;4871497;29;20418;-92
2022/11/17 18:04:49;;;;;;;7.07;2.13;;;;;;;-144.40;100.00;60209.53;4874953;29;20477;-94
2022/11/17 18:07:16;;;;;;;8.02;1.85;;;;;;;-144.40;100.00;60209.53;4872988;29;20089;-96
2022/11/17 18:09:42;;;;;;;7.35;1.73;;;;;;;-144.40;100.00;60209.53;4890063;29;20025;-94
2022/11/17 18:12:24;;;;;;;8.70;2.70;;;;;;;-144.40;100.00;60209.53;4875216;29;20040;-96
2022/11/17 18:14:50;;;;;;;6.32;1.58;;;;;;;-144.40;100.00;60209.53;4878817;29;20049;-95
2022/11/17 18:17:15;;;;;;;11.98;5.07;;;;;;;-144.40;100.00;60209.53;4869046;29;20040;-94
2022/11/17 18:19:41;;;;;;;9.38;3.80;;;;;;;-144.40;100.00;60209.53;4866187;29;20073;-96
2022/11/17 18:22:07;;;;;;;4.75;2.30;;;;;;;-144.40;100.00;60209.53;4875462;29;20025;-96
2022/11/17 18:24:33;;;;;;;9.18;2.22;;;;;;;-144.40;100.00;60209.53;4876474;29;20093;-96
2022/11/17 18:26:58;;;;;;;8.80;2.30;;;;;;;-144.40;100.00;60209.53;4865382;29;20041;-96
2022/11/17 18:29:24;;;;;;;5.82;1.90;;;;;;;-144.40;100.00;60209.53;4854731;29;20026;-96
2022/11/17 18:31:49;;;;;;;5.00;1.33;;;;;;;-144.40;100.00;60209.53;4865502;29;20042;-94
2022/11/17 18:34:20;;;;;;;4.68;1.45;;;;;;;-144.40;100.00;60209.53;4863713;29;20045;-94
2022/11/17 18:36:47;;;;;;;6.82;2.45;;;;;;;-144.40;100.00;60209.53;4863643;29;20386;-95
2022/11/17 18:39:15;;;;;;;5.45;2.60;;;;;;;-144.40;100.00;60209.53;4861564;29;20029;-94
2022/11/17 18:41:40;;;;;;;10.20;3.65;;;;;;;-144.40;100.00;60209.53;4863537;29;20037;-94
2022/11/17 18:44:06;;;;;;;12.30;2.35;;;;;;;-144.40;100.00;60209.53;4874630;29;20117;-93
2022/11/17 18:46:32;;;;;;;5.93;2.25;;;;;;;-144.40;100.00;60209.53;4863522;29;20029;-94
2022/11/17 18:48:59;;;;;;;4.55;1.10;;;;;;;-144.40;100.00;60209.53;4869616;29;20033;-93
2022/11/17 18:51:29;;;;;;;12.07;3.80;;;;;;;-144.40;100.00;60209.53;4873721;29;20484;-93
2022/11/17 18:53:57;;;;;;;7.85;3.17;;;;;;;-144.40;100.00;60209.53;4856198;29;20052;-93
2022/11/17 18:56:25;;;;;;;7.32;2.20;;;;;;;-144.40;100.00;60209.53;4862868;29;20124;-94
2022/11/17 18:58:51;;;;;;;12.88;3.47;;;;;;;-144.40;100.00;60209.53;4858832;29;20033;-92
2022/11/17 19:01:20;;;;;;;9.23;2.58;;;;;;;-144.40;100.00;60209.53;4847046;29;20470;-93
2022/11/17 19:03:48;;;;;;;8.88;2.25;;;;;;;-144.40;100.00;60209.53;4890699;29;20021;-94
2022/11/17 19:06:15;;;;;;;7.32;3.47;;;;;;;-144.40;100.00;60209.53;4878106;29;20123;-94
2022/11/17 19:08:41;;;;;;;6.97;1.73;;;;;;;-144.40;100.00;60209.53;4875215;29;20382;-94
2022/11/17 19:11:08;;;;;;;9.60;2.38;;;;;;;-144.40;100.00;60209.53;4869897;29;20286;-92
2022/11/17 19:13:35;;;;;;;10.23;3.40;;;;;;;-144.40;100.00;60209.53;4885998;29;20040;-93